Time;durP1;ratioP1;P1;durP2;ratioP2;P2;SDS_P1;SDS_P2;PMS_P1;PMS_P2;Temp;Humidity;BMP_temperature;BMP_pressure;BME280_temperature;BME280_humidity;BME280_pressure;Samples;Min_cycle;Max_cycle;Signal;HPM_P1;HPM_P2
2023/04/13 00:00:54;;;;;;;39.28;2.50;;;;;;;20.98;57.81;97979.31;7312882;19;130276;-38
2023/04/13 00:03:20;;;;;;;39.40;2.42;;;;;;;21.00;57.06;97976.50;7314571;19;130783;-38
2023/04/13 00:05:45;;;;;;;84.18;5.32;;;;;;;21.03;56.92;97973.53;7304958;19;130198;-35
2023/04/13 00:08:10;;;;;;;59.92;3.42;;;;;;;20.99;57.10;97983.53;7307688;19;129496;-39
2023/04/13 00:10:39;;;;;;;43.58;3.00;;;;;;;21.00;57.20;97981.75;7314775;19;129256;-39
2023/04/13 00:13:06;;;;;;;64.20;3.67;;;;;;;21.02;57.21;97995.44;7309247;19;129684;-40
2023/04/13 00:15:35;;;;;;;33.70;2.25;;;;;;;21.01;56.78;97992.00;7308720;19;129905;-40
2023/04/13 00:18:01;;;;;;;80.07;4.63;;;;;;;20.98;56.93;97991.53;7310082;19;130095;-40
2023/04/13 00:20:27;;;;;;;32.07;2.03;;;;;;;21.00;56.50;97982.56;7311773;19;130653;-38
2023/04/13 00:22:53;;;;;;;36.57;2.33;;;;;;;21.01;57.59;97978.13;7314433;19;130009;-40
2023/04/13 00:25:19;;;;;;;80.90;4.80;;;;;;;20.98;56.61;97979.31;7310785;19;129622;-39
2023/04/13 00:27:44;;;;;;;52.95;3.00;;;;;;;20.97;57.57;97977.69;7313555;19;129007;-40
2023/04/13 00:30:12;;;;;;;49.33;2.88;;;;;;;20.93;57.94;97980.78;7310277;19;130254;-40
2023/04/13 00:32:41;;;;;;;26.45;1.75;;;;;;;20.92;56.90;97974.75;7315324;19;129063;-41
2023/04/13 00:35:07;;;;;;;96.03;5.38;;;;;;;20.86;58.26;97980.66;7307567;19;129339;-39
2023/04/13 00:37:33;;;;;;;;;;;;;;;20.86;57.75;97964.97;7312086;19;129572;-41
2023/04/13 00:39:58;;;;;;;19.60;1.60;;;;;;;20.94;56.44;97982.41;7313187;19;129054;-37
2023/04/13 00:42:24;;;;;;;30.88;2.05;;;;;;;20.87;57.65;97981.47;7313843;19;129139;-40
2023/04/13 00:44:53;;;;;;;78.75;4.20;;;;;;;20.94;57.26;97985.81;7309314;19;131021;-40
2023/04/13 00:47:31;;;;;;;58.78;3.13;;;;;;;20.92;58.96;97984.38;7302331;19;130084;-39
2023/04/13 00:49:59;;;;;;;;;;;;;;;20.83;58.58;97954.88;7315276;19;129073;-40
2023/04/13 00:52:24;;;;;;;25.00;1.90;;;;;;;20.89;58.63;97982.91;7313523;19;129233;-40
2023/04/13 00:54:55;;;;;;;107.07;6.10;;;;;;;20.85;57.93;97991.28;7309134;19;129586;-38
2023/04/13 00:57:24;;;;;;;35.00;2.08;;;;;;;20.87;58.14;97992.75;7311315;19;129367;-38
2023/04/13 00:59:51;;;;;;;56.28;3.20;;;;;;;20.86;57.56;97975.44;7312239;19;129280;-40
2023/04/13 01:02:17;;;;;;;61.00;3.80;;;;;;;20.82;57.60;97979.41;7307807;19;132424;-40
2023/04/13 01:04:48;;;;;;;32.42;2.08;;;;;;;20.82;57.49;97983.81;7313074;19;129919;-40
2023/04/13 01:07:40;;;;;;;50.42;2.92;;;;;;;20.80;58.60;97989.19;7310100;19;130087;-40
2023/04/13 01:10:24;;;;;;;62.38;3.88;;;;;;;20.79;58.87;97992.81;7312779;19;130117;-38
2023/04/13 01:13:09;;;;;;;45.80;2.67;;;;;;;20.87;58.63;97997.16;7312345;19;130130;-38
2023/04/13 01:15:37;;;;;;;33.55;2.03;;;;;;;20.89;57.67;98003.81;7309613;19;129297;-40
2023/04/13 01:18:07;;;;;;;61.03;3.70;;;;;;;20.86;56.93;98006.78;7299257;19;128997;-38
2023/04/13 01:20:35;;;;;;;98.30;5.57;;;;;;;20.69;57.88;97981.78;7287906;19;132032;-36
2023/04/13 01:23:06;;;;;;;32.88;2.10;;;;;;;20.77;58.48;97990.34;7299827;19;131026;-40
2023/04/13 01:25:56;;;;;;;15.82;1.17;;;;;;;20.78;58.92;97988.56;7313507;19;130268;-40
2023/04/13 01:28:22;;;;;;;44.97;2.63;;;;;;;20.88;57.48;98004.81;7307011;19;129199;-41
2023/04/13 01:30:52;;;;;;;33.90;2.00;;;;;;;20.89;57.22;98011.66;7313876;19;129177;-39
2023/04/13 01:33:19;;;;;;;58.90;3.10;;;;;;;20.84;57.62;98013.97;7311485;19;129349;-39
2023/04/13 01:35:45;;;;;;;42.33;2.65;;;;;;;20.85;57.73;98009.56;7311126;19;130789;-38
2023/04/13 01:38:11;;;;;;;38.20;2.53;;;;;;;20.86;56.78;98013.81;7309481;19;130346;-37
2023/04/13 01:40:39;;;;;;;33.53;2.05;;;;;;;20.85;57.25;98010.38;7313985;19;129033;-40
2023/04/13 01:43:06;;;;;;;125.90;6.88;;;;;;;20.84;56.99;98011.34;7305989;19;129669;-39
2023/04/13 01:45:50;;;;;;;55.65;3.38;;;;;;;20.84;57.94;98016.56;7304103;19;131194;-38
2023/04/13 01:48:33;;;;;;;142.80;8.02;;;;;;;20.82;57.61;98004.69;7300201;19;130474;-39
2023/04/13 01:51:07;;;;;;;70.97;4.18;;;;;;;20.79;58.76;98007.66;7305423;19;131252;-40
2023/04/13 01:53:45;;;;;;;148.75;8.18;;;;;;;20.77;58.75;98005.22;7301325;19;131032;-39
2023/04/13 01:56:13;;;;;;;37.97;2.35;;;;;;;20.84;56.73;98018.41;7309913;19;130277;-40
2023/04/13 01:58:39;;;;;;;135.50;7.55;;;;;;;20.85;57.43;98020.84;7309656;19;129850;-37
2023/04/13 02:01:06;;;;;;;47.55;2.72;;;;;;;20.83;57.83;98024.59;7312726;19;128833;-40
2023/04/13 02:03:33;;;;;;;33.00;1.98;;;;;;;20.77;58.78;98015.66;7311967;19;130522;-38
2023/04/13 02:06:00;;;;;;;71.10;4.15;;;;;;;20.77;57.69;98023.50;7308613;19;129926;-39
2023/04/13 02:08:25;;;;;;;41.75;2.45;;;;;;;20.62;57.66;98020.00;7309669;19;129154;-41
2023/04/13 02:10:51;;;;;;;41.97;2.50;;;;;;;20.68;58.01;98034.97;7307395;19;129377;-39
2023/04/13 02:13:16;;;;;;;30.52;1.95;;;;;;;20.58;57.44;98022.13;7307907;19;129607;-39
2023/04/13 02:15:42;;;;;;;37.40;2.17;;;;;;;20.73;58.02;98037.88;7304254;19;129560;-36
2023/04/13 02:18:07;;;;;;;45.42;2.72;;;;;;;20.73;58.53;98053.53;7304175;19;129617;-40
2023/04/13 02:20:43;;;;;;;39.42;2.15;;;;;;;20.66;58.30;98032.53;7310063;19;129199;-39
2023/04/13 02:23:15;;;;;;;43.13;2.45;;;;;;;20.71;58.79;98061.56;7312431;19;129296;-38
2023/04/13 02:25:45;;;;;;;31.25;1.80;;;;;;;20.74;58.54;98063.03;7307068;19;130221;-38
2023/04/13 02:28:11;;;;;;;56.58;3.28;;;;;;;20.74;58.40;98063.03;7308124;19;128966;-39
2023/04/13 02:30:36;;;;;;;46.58;2.55;;;;;;;20.71;58.85;98076.41;7306842;19;129553;-39
2023/04/13 02:33:02;;;;;;;74.07;4.13;;;;;;;20.61;57.87;98044.47;7310043;19;130001;-38
2023/04/13 02:35:27;;;;;;;45.80;2.72;;;;;;;20.75;57.87;98072.47;7306008;19;131297;-40
2023/04/13 02:37:53;;;;;;;37.22;2.28;;;;;;;20.79;57.65;98073.78;7309488;19;129055;-39
2023/04/13 02:40:19;;;;;;;46.17;2.42;;;;;;;20.83;57.67;98069.81;7307438;19;129416;-38
2023/04/13 02:42:45;;;;;;;43.63;2.53;;;;;;;20.81;57.92;98071.78;7309710;19;129272;-37
2023/04/13 02:45:17;;;;;;;63.38;3.58;;;;;;;20.75;57.96;98064.63;7307411;19;130839;-40
2023/04/13 02:47:43;;;;;;;52.50;3.03;;;;;;;20.79;57.49;98058.09;7309367;19;130247;-40
2023/04/13 02:50:10;;;;;;;132.32;7.30;;;;;;;20.76;57.55;98058.41;7303899;19;129912;-40
2023/04/13 02:52:36;;;;;;;32.08;1.80;;;;;;;20.80;57.69;98070.16;7310897;19;129819;-40
2023/04/13 02:55:01;;;;;;;77.90;4.05;;;;;;;20.83;56.68;98064.59;7298625;19;130494;-40
2023/04/13 02:57:27;;;;;;;68.47;3.92;;;;;;;20.70;58.15;98059.13;7306896;19;129195;-37
2023/04/13 02:59:52;;;;;;;100.30;5.10;;;;;;;20.77;57.39;98070.50;7305844;19;131222;-37
2023/04/13 03:02:18;;;;;;;28.98;1.85;;;;;;;20.71;58.02;98077.22;7310988;19;130747;-39
2023/04/13 03:04:44;;;;;;;52.58;3.13;;;;;;;20.74;58.40;98076.09;7305926;19;129286;-39
2023/04/13 03:07:13;;;;;;;38.73;2.33;;;;;;;20.76;58.30;98079.31;7306479;19;129429;-40
2023/04/13 03:09:39;;;;;;;55.95;2.97;;;;;;;20.77;57.63;98086.19;7308265;19;128888;-37
2023/04/13 03:12:08;;;;;;;47.88;2.67;;;;;;;20.74;58.28;98086.53;7308222;19;129472;-40
2023/04/13 03:14:35;;;;;;;28.85;1.83;;;;;;;20.71;57.05;98065.94;7308704;19;131812;-40
2023/04/13 03:17:03;;;;;;;41.63;2.40;;;;;;;20.80;57.43;98075.38;7303500;19;129601;-40
2023/04/13 03:19:30;;;;;;;49.72;2.55;;;;;;;20.79;57.42;98084.22;7310688;19;129553;-38
2023/04/13 03:21:56;;;;;;;80.97;4.50;;;;;;;20.78;57.63;98087.78;7308278;19;130450;-39
2023/04/13 03:24:26;;;;;;;47.30;2.70;;;;;;;20.76;57.66;98088.97;7315797;19;129965;-38
2023/04/13 03:26:54;;;;;;;153.00;8.48;;;;;;;20.71;58.23;98081.63;7310706;19;130145;-40
2023/04/13 03:29:19;;;;;;;115.18;6.38;;;;;;;20.70;57.64;98090.44;7308466;19;129476;-39
2023/04/13 03:31:45;;;;;;;42.45;2.22;;;;;;;20.73;58.12;98090.09;7317036;19;130693;-39
2023/04/13 03:34:11;;;;;;;27.02;1.65;;;;;;;20.71;58.33;98105.94;7308632;19;131136;-39
2023/04/13 03:36:36;;;;;;;43.88;2.30;;;;;;;20.82;58.05;98104.78;7313305;19;130492;-38
2023/04/13 03:39:01;;;;;;;93.95;4.95;;;;;;;20.61;57.57;98107.94;7312141;19;129359;-41
2023/04/13 03:41:27;;;;;;;62.20;3.58;;;;;;;20.18;57.95;98087.53;7316430;19;128963;-40
2023/04/13 03:43:52;;;;;;;35.28;1.98;;;;;;;20.24;58.47;98125.19;7314663;19;130682;-41
2023/04/13 03:46:17;;;;;;;38.45;2.22;;;;;;;20.29;57.88;98112.47;7315532;19;129139;-38
2023/04/13 03:48:43;;;;;;;100.78;5.55;;;;;;;20.47;57.31;98126.94;7312599;19;129374;-41
2023/04/13 03:51:08;;;;;;;41.63;2.47;;;;;;;20.62;57.18;98130.47;7317608;19;129481;-40
2023/04/13 03:53:37;;;;;;;52.22;2.95;;;;;;;20.71;56.84;98126.00;7313510;19;129284;-39
2023/04/13 03:56:03;;;;;;;25.00;1.58;;;;;;;20.83;56.34;98131.69;7312331;19;129738;-40
2023/04/13 03:58:29;;;;;;;53.97;2.80;;;;;;;20.94;56.10;98126.09;7310392;19;129412;-38
2023/04/13 04:00:55;;;;;;;37.97;2.20;;;;;;;20.95;56.24;98123.31;7314280;19;129445;-39
2023/04/13 04:03:21;;;;;;;122.57;6.55;;;;;;;21.02;56.23;98113.84;7311846;19;129653;-40
2023/04/13 04:05:47;;;;;;;32.50;1.85;;;;;;;21.14;55.67;98133.34;7312610;19;129633;-41
2023/04/13 04:08:12;;;;;;;59.80;3.20;;;;;;;21.23;55.89;98129.72;7312611;19;128828;-39
2023/04/13 04:10:38;;;;;;;38.33;2.05;;;;;;;21.30;55.02;98138.50;7312827;19;131446;-41
2023/04/13 04:13:03;;;;;;;39.13;2.28;;;;;;;21.38;55.13;98129.78;7314083;19;129769;-40
2023/04/13 04:15:28;;;;;;;54.22;2.95;;;;;;;21.48;55.11;98128.56;7309167;19;130678;-38
2023/04/13 04:17:54;;;;;;;75.20;4.47;;;;;;;21.47;54.93;98118.28;7311899;19;129032;-39
2023/04/13 04:20:19;;;;;;;77.57;4.05;;;;;;;21.56;54.42;98115.44;7311284;19;129325;-37
2023/04/13 04:22:46;;;;;;;34.28;2.03;;;;;;;21.64;54.46;98102.28;7313149;19;130737;-40
2023/04/13 04:25:16;;;;;;;65.60;3.78;;;;;;;21.75;54.52;98104.47;7311439;19;128875;-39
2023/04/13 04:27:45;;;;;;;31.73;1.70;;;;;;;21.84;54.27;98113.09;7312264;19;130156;-41
2023/04/13 04:30:12;;;;;;;16.85;1.13;;;;;;;21.86;53.97;98106.72;7313190;19;130113;-41
2023/04/13 04:32:40;;;;;;;128.70;7.35;;;;;;;21.96;53.36;98107.25;7289276;19;131882;-40
2023/04/13 04:35:07;;;;;;;65.40;3.50;;;;;;;21.98;53.66;98116.75;7299805;19;129077;-37
2023/04/13 04:37:36;;;;;;;65.60;3.35;;;;;;;21.93;54.05;98117.28;7314235;19;129818;-39
2023/04/13 04:40:08;;;;;;;106.22;5.38;;;;;;;21.76;53.86;98111.38;7311540;19;130046;-41
2023/04/13 04:42:36;;;;;;;30.83;1.63;;;;;;;21.77;54.01;98130.50;7315387;19;130203;-39
2023/04/13 04:45:05;;;;;;;57.63;3.08;;;;;;;21.68;54.34;98145.41;7311476;19;128654;-40
2023/04/13 04:47:31;;;;;;;70.45;3.83;;;;;;;21.55;55.11;98141.75;7312393;19;128895;-41
2023/04/13 04:49:57;;;;;;;72.63;3.85;;;;;;;21.46;54.89;98145.41;7313562;19;129324;-40
2023/04/13 04:52:25;;;;;;;27.27;1.70;;;;;;;21.33;55.52;98146.00;7312879;19;129801;-40
2023/04/13 04:54:52;;;;;;;45.58;2.45;;;;;;;21.22;56.09;98138.53;7310616;19;129947;-40
2023/04/13 04:57:17;;;;;;;48.13;2.53;;;;;;;21.05;55.93;98130.97;7309820;19;130675;-39
2023/04/13 04:59:43;;;;;;;29.02;1.70;;;;;;;21.04;56.11;98151.03;7313665;19;128897;-39
2023/04/13 05:02:09;;;;;;;169.53;9.13;;;;;;;20.94;56.67;98145.19;7309353;19;130131;-37
2023/04/13 05:04:34;;;;;;;70.35;3.95;;;;;;;20.88;56.88;98147.66;7309024;19;129482;-40
2023/04/13 05:07:01;;;;;;;74.60;3.90;;;;;;;20.80;57.15;98165.97;7311511;19;129132;-39
2023/04/13 05:09:26;;;;;;;36.90;2.28;;;;;;;20.68;57.14;98168.97;7311105;19;131127;-40
2023/04/13 05:11:52;;;;;;;15.60;1.02;;;;;;;20.66;57.26;98178.75;7312011;19;129566;-39
2023/04/13 05:14:17;;;;;;;31.30;1.90;;;;;;;20.59;57.76;98183.00;7312474;19;129393;-40
2023/04/13 05:16:43;;;;;;;46.88;2.38;;;;;;;20.55;57.88;98180.91;7311457;19;129050;-39
2023/04/13 05:19:09;;;;;;;70.15;4.05;;;;;;;20.62;57.93;98202.78;7308150;19;129306;-38
2023/04/13 05:21:35;;;;;;;30.40;1.58;;;;;;;20.71;57.21;98212.19;7313498;19;129273;-40
2023/04/13 05:24:01;;;;;;;58.05;2.92;;;;;;;20.68;57.25;98196.88;7310593;19;129614;-40
2023/04/13 05:26:27;;;;;;;66.88;3.50;;;;;;;20.91;57.21;98213.44;7309891;19;130663;-39
2023/04/13 05:28:53;;;;;;;;;;;;;;;21.01;56.45;98214.09;7309637;19;130973;-40
2023/04/13 05:31:19;;;;;;;57.45;2.90;;;;;;;21.15;55.95;98218.63;7313369;19;129898;-37
2023/04/13 05:33:45;;;;;;;36.08;2.35;;;;;;;21.19;56.43;98222.50;7309295;19;128898;-37
2023/04/13 05:36:10;;;;;;;72.57;3.70;;;;;;;21.24;56.29;98219.38;7309385;19;129469;-38
2023/04/13 05:38:36;;;;;;;131.32;7.30;;;;;;;21.17;56.05;98214.03;7311457;19;130136;-38
2023/04/13 05:41:02;;;;;;;50.58;2.80;;;;;;;21.18;55.94;98236.56;7312805;19;130392;-36
2023/04/13 05:43:27;;;;;;;57.60;3.00;;;;;;;20.99;56.59;98221.28;7311561;19;129299;-37
2023/04/13 05:45:53;;;;;;;72.78;3.85;;;;;;;21.02;56.58;98247.09;7306745;19;130546;-39
2023/04/13 05:48:18;;;;;;;46.97;2.70;;;;;;;20.94;56.49;98249.69;7310924;19;129069;-38
2023/04/13 05:50:44;;;;;;;58.08;3.17;;;;;;;20.92;56.55;98256.91;7308589;19;129457;-40
2023/04/13 05:53:09;;;;;;;42.20;2.33;;;;;;;20.83;57.34;98264.88;7311236;19;130217;-40
2023/04/13 05:55:35;;;;;;;30.70;1.67;;;;;;;20.73;57.35;98272.91;7308949;19;128973;-39
2023/04/13 05:58:02;;;;;;;44.27;2.40;;;;;;;20.69;57.54;98282.09;7310884;19;129265;-39
2023/04/13 06:00:28;;;;;;;26.52;1.52;;;;;;;20.64;57.64;98279.16;7310286;19;130801;-41
2023/04/13 06:02:54;;;;;;;54.53;3.13;;;;;;;20.58;58.10;98290.22;7312613;19;129106;-39
2023/04/13 06:05:21;;;;;;;65.90;3.72;;;;;;;20.53;58.01;98282.91;7308092;19;129462;-40
2023/04/13 06:07:46;;;;;;;;;;;;;;;20.53;57.91;98284.69;7311437;19;131051;-40
2023/04/13 06:10:15;;;;;;;31.20;1.55;;;;;;;20.53;57.82;98282.06;7307126;19;131152;-42
2023/04/13 06:12:41;;;;;;;26.73;1.65;;;;;;;20.60;57.72;98288.28;7311008;19;129664;-39
2023/04/13 06:15:07;;;;;;;64.77;3.63;;;;;;;20.68;57.34;98296.09;7310030;19;129279;-39
2023/04/13 06:17:32;;;;;;;53.50;2.87;;;;;;;20.85;56.99;98296.91;7303768;19;130149;-40
2023/04/13 06:19:58;;;;;;;40.88;2.65;;;;;;;20.95;57.15;98285.28;7307930;19;129379;-40
2023/04/13 06:22:23;;;;;;;55.85;2.95;;;;;;;21.10;56.06;98288.88;7311421;19;129524;-40
2023/04/13 06:24:52;;;;;;;36.70;2.17;;;;;;;21.15;56.45;98283.97;7305666;19;129603;-38
2023/04/13 06:27:18;;;;;;;30.77;1.75;;;;;;;21.22;55.65;98274.44;7309188;19;130222;-38
2023/04/13 06:29:44;;;;;;;29.35;1.67;;;;;;;21.15;56.27;98263.06;7309904;19;130641;-37
2023/04/13 06:32:10;;;;;;;74.32;4.13;;;;;;;21.15;55.94;98276.13;7309736;19;130746;-38
2023/04/13 06:34:35;;;;;;;43.15;2.78;;;;;;;21.04;56.02;98268.63;7310660;19;128932;-38
2023/04/13 06:37:02;;;;;;;120.85;6.47;;;;;;;21.05;56.22;98293.78;7304998;19;131231;-38
2023/04/13 06:39:27;;;;;;;36.08;2.35;;;;;;;20.95;56.83;98282.69;7310475;19;130372;-38
2023/04/13 06:41:53;;;;;;;59.07;3.17;;;;;;;20.89;56.87;98288.56;7311544;19;129005;-38
2023/04/13 06:44:18;;;;;;;35.90;2.05;;;;;;;20.85;56.66;98287.28;7308702;19;130158;-38
2023/04/13 06:46:43;;;;;;;21.83;1.40;;;;;;;20.78;57.41;98275.84;7309035;19;129472;-38
2023/04/13 06:49:09;;;;;;;41.95;2.60;;;;;;;20.72;56.93;98279.94;7310291;19;129666;-38
2023/04/13 06:51:34;;;;;;;69.05;4.22;;;;;;;20.64;57.89;98279.16;7310438;19;129249;-38
2023/04/13 06:54:00;;;;;;;37.75;2.17;;;;;;;20.61;58.01;98279.44;7312095;19;129143;-37
2023/04/13 06:56:26;;;;;;;36.45;2.22;;;;;;;20.44;57.60;98257.78;7309293;19;129401;-38
2023/04/13 06:58:51;;;;;;;31.73;2.17;;;;;;;20.53;58.22;98276.84;7316051;19;129660;-38
2023/04/13 07:01:16;;;;;;;82.93;4.78;;;;;;;20.55;58.36;98285.34;7317008;19;128955;-38
2023/04/13 07:03:45;;;;;;;71.03;3.95;;;;;;;20.58;58.10;98274.56;7314970;19;130983;-38
2023/04/13 07:06:10;;;;;;;46.90;2.60;;;;;;;20.60;57.49;98254.34;7315552;19;133022;-38
2023/04/13 07:08:36;;;;;;;57.45;3.25;;;;;;;20.80;57.05;98279.13;7316933;19;130328;-38
2023/04/13 07:11:01;;;;;;;49.72;2.78;;;;;;;20.96;56.77;98278.28;7318177;19;129382;-37
2023/04/13 07:13:27;;;;;;;30.15;1.75;;;;;;;20.97;56.91;98265.06;7314211;19;129231;-38
2023/04/13 07:15:52;;;;;;;74.40;4.20;;;;;;;21.19;56.60;98274.78;7313406;19;132273;-38
2023/04/13 07:18:18;;;;;;;49.95;2.97;;;;;;;21.24;55.66;98277.69;7307402;19;130593;-39
2023/04/13 07:20:44;;;;;;;52.25;2.90;;;;;;;21.27;56.24;98287.81;7315053;19;129202;-37
2023/04/13 07:23:09;;;;;;;57.55;3.45;;;;;;;21.24;56.01;98293.38;7309309;19;130132;-38
2023/04/13 07:25:35;;;;;;;48.55;2.70;;;;;;;21.15;56.00;98304.03;7313609;19;130885;-38
2023/04/13 07:28:00;;;;;;;63.75;3.38;;;;;;;21.10;56.80;98316.78;7311280;19;130406;-38
2023/04/13 07:30:26;;;;;;;61.45;3.63;;;;;;;21.03;56.43;98311.44;7312546;19;129968;-38
2023/04/13 07:32:52;;;;;;;38.67;2.35;;;;;;;20.98;56.73;98318.94;7309718;19;131096;-38
2023/04/13 07:35:17;;;;;;;81.17;4.83;;;;;;;20.94;56.72;98307.16;7311007;19;130141;-38
2023/04/13 07:37:43;;;;;;;50.75;2.88;;;;;;;20.85;57.68;98308.16;7311238;19;131758;-38
2023/04/13 07:40:10;;;;;;;53.50;3.35;;;;;;;20.68;57.61;98293.50;7310845;19;130302;-38
2023/04/13 07:42:35;;;;;;;57.53;3.42;;;;;;;20.67;57.25;98312.75;7308586;19;130983;-37
2023/04/13 07:45:01;;;;;;;56.92;3.20;;;;;;;20.65;57.67;98318.16;7309376;19;130137;-38
2023/04/13 07:47:27;;;;;;;54.08;2.92;;;;;;;20.64;58.04;98320.94;7314733;19;130527;-38
2023/04/13 07:49:53;;;;;;;36.03;2.03;;;;;;;20.62;57.82;98335.94;7315299;19;129107;-38
2023/04/13 07:52:19;;;;;;;97.83;5.50;;;;;;;20.56;58.18;98334.78;7313591;19;129657;-37
2023/04/13 07:54:44;;;;;;;30.15;1.75;;;;;;;20.56;57.73;98334.00;7308562;19;130305;-38
2023/04/13 07:57:09;;;;;;;88.90;4.53;;;;;;;20.61;58.00;98349.97;7312425;19;130017;-39
2023/04/13 07:59:35;;;;;;;43.30;3.03;;;;;;;20.72;57.67;98349.66;7316499;19;129388;-38
2023/04/13 08:02:00;;;;;;;23.50;1.67;;;;;;;20.86;56.88;98350.78;7314624;19;129123;-38
2023/04/13 08:04:26;;;;;;;53.63;2.77;;;;;;;20.96;57.05;98346.22;7314875;19;129554;-38
2023/04/13 08:06:52;;;;;;;48.95;2.75;;;;;;;21.10;56.53;98348.16;7314605;19;130425;-39
2023/04/13 08:09:18;;;;;;;59.60;3.00;;;;;;;21.25;56.13;98359.56;7313581;19;128873;-38
2023/04/13 08:11:43;;;;;;;31.20;1.90;;;;;;;21.31;55.63;98367.53;7314615;19;128780;-37
2023/04/13 08:14:10;;;;;;;57.35;3.30;;;;;;;21.27;55.73;98358.41;7315960;19;129226;-38
2023/04/13 08:16:36;;;;;;;35.97;2.20;;;;;;;21.32;55.17;98361.31;7313166;19;130378;-38
2023/04/13 08:19:01;;;;;;;14.73;1.13;;;;;;;21.15;55.58;98351.91;7316902;19;129184;-38
2023/04/13 08:21:28;;;;;;;30.93;1.93;;;;;;;21.17;56.10;98364.81;7315969;19;129023;-38
2023/04/13 08:23:54;;;;;;;;;;;;;;;21.09;55.74;98362.22;7315621;19;129167;-38
2023/04/13 08:26:20;;;;;;;29.73;2.22;;;;;;;21.02;56.63;98361.25;7315440;19;129593;-38
2023/04/13 08:28:49;;;;;;;46.77;2.63;;;;;;;20.95;56.24;98355.84;7316001;19;129688;-39
2023/04/13 08:31:15;;;;;;;19.17;1.23;;;;;;;20.88;56.67;98365.31;7316319;19;129787;-38
2023/04/13 08:33:41;;;;;;;42.60;2.55;;;;;;;20.71;57.17;98358.44;7315249;19;129352;-38
2023/04/13 08:36:07;;;;;;;48.63;2.95;;;;;;;20.77;57.07;98374.28;7314506;19;129400;-38
2023/04/13 08:38:33;;;;;;;13.00;1.13;;;;;;;20.73;57.51;98377.38;7313671;19;129071;-38
2023/04/13 08:41:00;;;;;;;19.60;1.40;;;;;;;20.67;57.79;98383.28;7316416;19;129030;-38
2023/04/13 08:43:26;;;;;;;57.50;3.05;;;;;;;20.63;57.79;98384.56;7316444;19;129094;-38
2023/04/13 08:45:52;;;;;;;26.73;1.80;;;;;;;20.49;57.89;98370.34;7316420;19;129768;-38
2023/04/13 08:48:18;;;;;;;23.67;1.60;;;;;;;20.62;57.34;98369.88;7312223;19;130206;-38
2023/04/13 08:50:44;;;;;;;43.43;2.57;;;;;;;20.70;57.81;98377.72;7314646;19;128951;-38
2023/04/13 08:53:10;;;;;;;70.50;3.78;;;;;;;20.83;57.16;98375.44;7315560;19;131630;-37
2023/04/13 08:55:45;;;;;;;34.60;2.20;;;;;;;20.88;56.76;98365.31;7314403;19;130398;-38
2023/04/13 08:58:19;;;;;;;46.22;2.47;;;;;;;21.10;55.97;98369.88;7313626;19;129315;-38
2023/04/13 09:00:48;;;;;;;36.92;2.22;;;;;;;21.18;56.02;98377.72;7314518;19;129445;-38
2023/04/13 09:03:19;;;;;;;49.22;2.60;;;;;;;21.17;55.83;98363.00;7315213;19;130126;-38
2023/04/13 09:05:48;;;;;;;51.47;2.85;;;;;;;21.31;55.71;98378.00;7314185;19;130393;-38
2023/04/13 09:08:15;;;;;;;64.15;3.47;;;;;;;21.16;55.83;98355.31;7313514;19;129730;-38
2023/04/13 09:10:41;;;;;;;37.17;2.08;;;;;;;21.19;55.55;98366.25;7315337;19;129011;-37
2023/04/13 09:13:06;;;;;;;34.33;2.10;;;;;;;21.22;56.05;98373.75;7312228;19;129340;-38
2023/04/13 09:15:32;;;;;;;44.13;2.45;;;;;;;21.09;55.97;98370.06;7312410;19;129692;-38
2023/04/13 09:18:08;;;;;;;37.70;2.27;;;;;;;21.04;56.37;98394.03;7314374;19;129251;-38
2023/04/13 09:20:34;;;;;;;37.50;2.22;;;;;;;21.00;56.51;98395.38;7311954;19;130231;-37
2023/04/13 09:23:11;;;;;;;32.72;1.83;;;;;;;20.92;56.66;98390.13;7312775;19;129154;-37
2023/04/13 09:25:36;;;;;;;13.00;1.08;;;;;;;20.86;57.16;98393.38;7313469;19;130638;-38
2023/04/13 09:28:04;;;;;;;39.00;2.33;;;;;;;20.82;56.92;98392.09;7312961;19;129822;-38
2023/04/13 09:30:30;;;;;;;65.22;3.47;;;;;;;20.77;57.57;98399.59;7313324;19;128901;-38
2023/04/13 09:33:06;;;;;;;18.38;1.33;;;;;;;20.67;57.42;98389.31;7314723;19;130095;-38
2023/04/13 09:35:32;;;;;;;72.55;4.10;;;;;;;20.65;57.40;98400.91;7310159;19;129846;-38
2023/04/13 09:37:58;;;;;;;36.33;2.00;;;;;;;20.65;57.50;98396.50;7311667;19;128903;-39
2023/04/13 09:40:26;;;;;;;41.58;2.17;;;;;;;20.61;57.82;98399.56;7314639;19;128762;-38
2023/04/13 09:43:03;;;;;;;34.17;2.35;;;;;;;20.71;57.55;98410.69;7312299;19;129300;-37
2023/04/13 09:45:35;;;;;;;;;;;;;;;20.86;56.93;98401.22;7313198;19;129339;-37
2023/04/13 09:48:05;;;;;;;34.80;2.00;;;;;;;20.98;56.67;98393.88;7310679;19;129444;-37
2023/04/13 09:50:32;;;;;;;44.95;2.67;;;;;;;21.05;56.11;98387.84;7313608;19;129748;-38
2023/04/13 09:53:03;;;;;;;51.45;2.67;;;;;;;21.26;55.63;98405.63;7312351;19;129356;-38
2023/04/13 09:55:31;;;;;;;42.28;2.47;;;;;;;21.30;55.42;98406.94;7312472;19;130429;-37
2023/04/13 09:58:10;;;;;;;30.30;1.70;;;;;;;21.30;55.66;98406.94;7310753;19;129120;-38
2023/04/13 10:00:41;;;;;;;45.42;2.55;;;;;;;21.31;56.00;98413.78;7313355;19;129013;-37
2023/04/13 10:03:14;;;;;;;22.05;1.38;;;;;;;21.27;55.46;98418.50;7312421;19;129006;-38
2023/04/13 10:05:41;;;;;;;52.10;2.80;;;;;;;21.21;55.50;98413.97;7310713;19;129418;-37
2023/04/13 10:08:07;;;;;;;22.77;1.38;;;;;;;21.14;56.24;98412.19;7311029;19;129106;-38
2023/04/13 10:10:33;;;;;;;43.97;2.57;;;;;;;21.09;55.90;98415.28;7310886;19;129157;-37
2023/04/13 10:13:04;;;;;;;40.27;2.47;;;;;;;21.00;56.48;98405.81;7310798;19;129283;-38
2023/04/13 10:15:49;;;;;;;59.13;3.72;;;;;;;20.94;56.34;98411.66;7311455;19;129162;-38
2023/04/13 10:18:24;;;;;;;35.78;2.03;;;;;;;20.75;56.62;98383.28;7309103;19;129320;-37
2023/04/13 10:20:51;;;;;;;43.00;2.28;;;;;;;20.82;56.94;98409.56;7312531;19;129032;-38
2023/04/13 10:23:18;;;;;;;53.20;2.75;;;;;;;20.66;57.19;98381.63;7311320;19;129376;-37
2023/04/13 10:25:53;;;;;;;29.92;1.75;;;;;;;20.75;57.02;98406.78;7312717;19;129547;-38
2023/04/13 10:28:20;;;;;;;30.65;1.70;;;;;;;20.68;58.00;98405.78;7309933;19;129288;-38
2023/04/13 10:30:52;;;;;;;47.88;2.45;;;;;;;20.65;57.41;98411.34;7310234;19;128715;-39
2023/04/13 10:33:17;;;;;;;43.72;2.53;;;;;;;20.63;57.27;98414.13;7312210;19;130242;-38
2023/04/13 10:35:57;;;;;;;49.65;2.65;;;;;;;20.61;57.75;98420.47;7311559;19;130323;-37
2023/04/13 10:38:22;;;;;;;29.85;1.70;;;;;;;20.59;57.82;98418.00;7308344;19;129740;-38
2023/04/13 10:40:48;;;;;;;48.85;2.40;;;;;;;20.57;58.02;98420.00;7310421;19;129659;-38
2023/04/13 10:43:27;;;;;;;78.45;4.00;;;;;;;20.71;58.05;98421.13;7309931;19;129764;-36
2023/04/13 10:46:09;;;;;;;64.38;3.30;;;;;;;20.85;57.04;98422.28;7310696;19;130661;-37
2023/04/13 10:48:36;;;;;;;77.47;3.92;;;;;;;21.00;56.77;98416.28;7308278;19;129207;-38
2023/04/13 10:51:01;;;;;;;36.85;2.05;;;;;;;21.14;56.29;98418.22;7310328;19;129061;-38
2023/04/13 10:53:29;;;;;;;35.42;2.30;;;;;;;21.22;56.10;98414.78;7312225;19;129077;-37
2023/04/13 10:55:56;;;;;;;50.70;2.55;;;;;;;21.23;55.94;98412.00;7308911;19;129434;-37
2023/04/13 10:58:21;;;;;;;;;;;;;;;21.20;55.55;98412.34;7310166;19;128821;-38
2023/04/13 11:00:49;;;;;;;41.50;2.30;;;;;;;21.11;56.12;98396.81;7310414;19;129493;-38
2023/04/13 11:03:15;;;;;;;34.13;1.88;;;;;;;21.07;56.14;98396.34;7310812;19;130163;-38
2023/04/13 11:05:41;;;;;;;43.50;2.27;;;;;;;21.11;56.28;98422.94;7310193;19;130538;-38
2023/04/13 11:08:08;;;;;;;32.92;1.85;;;;;;;21.06;56.01;98422.63;7309826;19;129144;-38
2023/04/13 11:10:33;;;;;;;46.42;2.90;;;;;;;21.01;56.96;98417.91;7310018;19;129090;-38
2023/04/13 11:12:58;;;;;;;25.55;1.42;;;;;;;20.83;57.16;98396.31;7309040;19;129506;-38
2023/04/13 11:15:27;;;;;;;55.73;3.23;;;;;;;20.87;57.37;98423.75;7309560;19;130256;-38
2023/04/13 11:17:57;;;;;;;34.58;1.77;;;;;;;20.82;57.41;98418.22;7309811;19;129167;-38
2023/04/13 11:20:37;;;;;;;27.52;1.60;;;;;;;20.75;57.30;98422.44;7308012;19;129279;-37